sensor_id;sensor_type;location;lat;lon;timestamp;P1;durP1;ratioP1;P2;durP2;ratioP2
78716;SDS011;68045;50.042;14.432;2023-08-20T00:01:50;12.25;;;10.90;;
78716;SDS011;68045;50.042;14.432;2023-08-20T00:09:57;12.30;;;9.85;;
78716;SDS011;68045;50.042;14.432;2023-08-20T00:13:59;14.23;;;10.90;;
78716;SDS011;68045;50.042;14.432;2023-08-20T00:18:00;15.18;;;10.93;;
78716;SDS011;68045;50.042;14.432;2023-08-20T00:22:01;14.63;;;10.00;;
78716;SDS011;68045;50.042;14.432;2023-08-20T00:26:02;14.25;;;10.13;;
78716;SDS011;68045;50.042;14.432;2023-08-20T00:30:03;13.85;;;11.07;;
78716;SDS011;68045;50.042;14.432;2023-08-20T00:34:04;12.68;;;9.55;;
78716;SDS011;68045;50.042;14.432;2023-08-20T00:38:05;12.98;;;10.32;;
78716;SDS011;68045;50.042;14.432;2023-08-20T00:42:07;14.63;;;11.02;;
78716;SDS011;68045;50.042;14.432;2023-08-20T00:46:08;12.52;;;9.55;;
78716;SDS011;68045;50.042;14.432;2023-08-20T00:50:09;16.95;;;10.23;;
78716;SDS011;68045;50.042;14.432;2023-08-20T00:54:11;14.25;;;11.02;;
78716;SDS011;68045;50.042;14.432;2023-08-20T00:58:13;15.02;;;11.93;;
78716;SDS011;68045;50.042;14.432;2023-08-20T01:02:15;14.48;;;11.85;;
78716;SDS011;68045;50.042;14.432;2023-08-20T01:06:23;15.57;;;11.45;;
78716;SDS011;68045;50.042;14.432;2023-08-20T01:10:56;18.85;;;12.43;;
78716;SDS011;68045;50.042;14.432;2023-08-20T01:15:01;17.50;;;11.43;;
78716;SDS011;68045;50.042;14.432;2023-08-20T01:19:02;16.77;;;11.27;;
78716;SDS011;68045;50.042;14.432;2023-08-20T01:31:31;14.82;;;11.35;;
78716;SDS011;68045;50.042;14.432;2023-08-20T01:35:33;15.05;;;11.25;;
78716;SDS011;68045;50.042;14.432;2023-08-20T01:39:37;14.90;;;11.43;;
78716;SDS011;68045;50.042;14.432;2023-08-20T01:43:39;15.75;;;11.63;;
78716;SDS011;68045;50.042;14.432;2023-08-20T01:47:40;18.98;;;12.25;;
78716;SDS011;68045;50.042;14.432;2023-08-20T01:51:40;13.60;;;11.20;;
78716;SDS011;68045;50.042;14.432;2023-08-20T01:55:41;16.55;;;12.82;;
78716;SDS011;68045;50.042;14.432;2023-08-20T01:59:42;14.68;;;12.07;;
78716;SDS011;68045;50.042;14.432;2023-08-20T02:03:44;16.90;;;12.35;;
78716;SDS011;68045;50.042;14.432;2023-08-20T02:07:44;15.15;;;12.57;;
78716;SDS011;68045;50.042;14.432;2023-08-20T02:11:45;16.85;;;12.00;;
78716;SDS011;68045;50.042;14.432;2023-08-20T02:15:46;14.73;;;12.43;;
78716;SDS011;68045;50.042;14.432;2023-08-20T02:19:46;15.82;;;12.15;;
78716;SDS011;68045;50.042;14.432;2023-08-20T02:23:47;20.02;;;13.13;;
78716;SDS011;68045;50.042;14.432;2023-08-20T02:27:48;17.45;;;12.98;;
78716;SDS011;68045;50.042;14.432;2023-08-20T02:31:49;16.10;;;13.88;;
78716;SDS011;68045;50.042;14.432;2023-08-20T02:35:51;20.27;;;13.32;;
78716;SDS011;68045;50.042;14.432;2023-08-20T02:39:52;15.20;;;12.82;;
78716;SDS011;68045;50.042;14.432;2023-08-20T02:43:52;17.10;;;12.05;;
78716;SDS011;68045;50.042;14.432;2023-08-20T02:47:56;16.05;;;12.80;;
78716;SDS011;68045;50.042;14.432;2023-08-20T02:51:57;17.83;;;13.55;;
78716;SDS011;68045;50.042;14.432;2023-08-20T02:55:58;17.83;;;13.13;;
78716;SDS011;68045;50.042;14.432;2023-08-20T02:59:59;18.15;;;13.43;;
78716;SDS011;68045;50.042;14.432;2023-08-20T03:03:59;15.75;;;13.32;;
78716;SDS011;68045;50.042;14.432;2023-08-20T03:08:00;17.95;;;12.60;;
78716;SDS011;68045;50.042;14.432;2023-08-20T03:12:02;17.45;;;13.07;;
78716;SDS011;68045;50.042;14.432;2023-08-20T03:16:02;17.38;;;12.57;;
78716;SDS011;68045;50.042;14.432;2023-08-20T03:20:04;16.00;;;12.80;;
78716;SDS011;68045;50.042;14.432;2023-08-20T03:24:07;16.77;;;13.20;;
78716;SDS011;68045;50.042;14.432;2023-08-20T03:28:08;17.73;;;12.50;;
78716;SDS011;68045;50.042;14.432;2023-08-20T03:32:10;17.02;;;12.85;;
78716;SDS011;68045;50.042;14.432;2023-08-20T03:36:11;16.30;;;13.48;;
78716;SDS011;68045;50.042;14.432;2023-08-20T03:40:12;18.05;;;12.90;;
78716;SDS011;68045;50.042;14.432;2023-08-20T03:44:13;15.13;;;12.45;;
78716;SDS011;68045;50.042;14.432;2023-08-20T03:48:14;16.27;;;13.10;;
78716;SDS011;68045;50.042;14.432;2023-08-20T03:52:15;17.02;;;13.25;;
78716;SDS011;68045;50.042;14.432;2023-08-20T03:56:16;16.65;;;12.77;;
78716;SDS011;68045;50.042;14.432;2023-08-20T04:00:17;16.60;;;12.98;;
78716;SDS011;68045;50.042;14.432;2023-08-20T04:04:20;16.02;;;12.23;;
78716;SDS011;68045;50.042;14.432;2023-08-20T04:08:21;16.20;;;12.57;;
78716;SDS011;68045;50.042;14.432;2023-08-20T04:12:22;15.95;;;13.43;;
78716;SDS011;68045;50.042;14.432;2023-08-20T04:16:23;16.40;;;13.68;;
78716;SDS011;68045;50.042;14.432;2023-08-20T04:20:25;17.75;;;14.13;;
78716;SDS011;68045;50.042;14.432;2023-08-20T04:24:27;17.35;;;12.40;;
78716;SDS011;68045;50.042;14.432;2023-08-20T04:28:27;16.30;;;12.60;;
78716;SDS011;68045;50.042;14.432;2023-08-20T04:32:29;16.88;;;12.90;;
78716;SDS011;68045;50.042;14.432;2023-08-20T04:36:29;17.65;;;13.32;;
78716;SDS011;68045;50.042;14.432;2023-08-20T04:40:30;17.58;;;13.35;;
78716;SDS011;68045;50.042;14.432;2023-08-20T04:44:31;15.13;;;12.75;;
78716;SDS011;68045;50.042;14.432;2023-08-20T04:48:32;23.55;;;13.55;;
78716;SDS011;68045;50.042;14.432;2023-08-20T04:52:34;16.25;;;12.80;;
78716;SDS011;68045;50.042;14.432;2023-08-20T04:56:35;19.15;;;14.00;;
78716;SDS011;68045;50.042;14.432;2023-08-20T05:00:36;15.93;;;13.48;;
78716;SDS011;68045;50.042;14.432;2023-08-20T05:04:43;17.95;;;13.88;;
78716;SDS011;68045;50.042;14.432;2023-08-20T05:08:43;17.48;;;14.02;;
78716;SDS011;68045;50.042;14.432;2023-08-20T05:12:44;16.95;;;12.85;;
78716;SDS011;68045;50.042;14.432;2023-08-20T05:16:45;19.20;;;14.60;;
78716;SDS011;68045;50.042;14.432;2023-08-20T05:20:46;16.02;;;13.43;;
78716;SDS011;68045;50.042;14.432;2023-08-20T05:24:47;15.73;;;12.75;;
78716;SDS011;68045;50.042;14.432;2023-08-20T05:28:48;17.90;;;13.10;;
78716;SDS011;68045;50.042;14.432;2023-08-20T05:32:49;15.15;;;12.65;;
78716;SDS011;68045;50.042;14.432;2023-08-20T05:36:50;15.55;;;12.60;;
78716;SDS011;68045;50.042;14.432;2023-08-20T05:40:51;16.33;;;12.40;;
78716;SDS011;68045;50.042;14.432;2023-08-20T05:44:52;16.77;;;13.73;;
78716;SDS011;68045;50.042;14.432;2023-08-20T05:48:58;18.52;;;14.70;;
78716;SDS011;68045;50.042;14.432;2023-08-20T05:53:01;16.55;;;13.43;;
78716;SDS011;68045;50.042;14.432;2023-08-20T05:57:04;17.85;;;12.77;;
78716;SDS011;68045;50.042;14.432;2023-08-20T06:01:06;14.32;;;11.82;;
78716;SDS011;68045;50.042;14.432;2023-08-20T06:05:07;17.25;;;12.52;;
78716;SDS011;68045;50.042;14.432;2023-08-20T06:09:08;16.52;;;14.32;;
78716;SDS011;68045;50.042;14.432;2023-08-20T06:13:09;15.77;;;12.77;;
78716;SDS011;68045;50.042;14.432;2023-08-20T06:17:10;17.90;;;12.63;;
78716;SDS011;68045;50.042;14.432;2023-08-20T06:21:12;17.20;;;13.80;;
78716;SDS011;68045;50.042;14.432;2023-08-20T06:25:13;21.75;;;13.77;;
78716;SDS011;68045;50.042;14.432;2023-08-20T06:29:14;16.40;;;12.88;;
78716;SDS011;68045;50.042;14.432;2023-08-20T06:33:15;17.73;;;13.88;;
78716;SDS011;68045;50.042;14.432;2023-08-20T06:37:16;18.63;;;12.80;;
78716;SDS011;68045;50.042;14.432;2023-08-20T06:41:17;15.48;;;12.90;;
78716;SDS011;68045;50.042;14.432;2023-08-20T06:45:18;15.05;;;12.80;;
78716;SDS011;68045;50.042;14.432;2023-08-20T06:49:19;16.73;;;13.18;;
78716;SDS011;68045;50.042;14.432;2023-08-20T06:53:20;17.15;;;12.35;;
78716;SDS011;68045;50.042;14.432;2023-08-20T06:57:21;17.10;;;13.07;;
78716;SDS011;68045;50.042;14.432;2023-08-20T07:01:21;18.02;;;12.68;;
78716;SDS011;68045;50.042;14.432;2023-08-20T07:05:22;15.38;;;12.50;;
78716;SDS011;68045;50.042;14.432;2023-08-20T07:09:23;15.65;;;12.63;;
78716;SDS011;68045;50.042;14.432;2023-08-20T07:13:24;15.07;;;13.38;;
78716;SDS011;68045;50.042;14.432;2023-08-20T07:17:24;14.57;;;12.88;;
78716;SDS011;68045;50.042;14.432;2023-08-20T07:21:25;14.43;;;12.93;;
78716;SDS011;68045;50.042;14.432;2023-08-20T07:25:26;16.63;;;13.13;;
78716;SDS011;68045;50.042;14.432;2023-08-20T07:29:27;13.25;;;11.57;;
78716;SDS011;68045;50.042;14.432;2023-08-20T07:33:31;17.35;;;13.25;;
78716;SDS011;68045;50.042;14.432;2023-08-20T07:37:31;14.00;;;11.48;;
78716;SDS011;68045;50.042;14.432;2023-08-20T07:41:32;15.02;;;12.27;;
78716;SDS011;68045;50.042;14.432;2023-08-20T07:45:33;14.43;;;12.60;;
78716;SDS011;68045;50.042;14.432;2023-08-20T07:49:34;15.30;;;11.65;;
78716;SDS011;68045;50.042;14.432;2023-08-20T07:53:35;19.25;;;12.18;;
78716;SDS011;68045;50.042;14.432;2023-08-20T07:57:35;16.17;;;11.80;;
78716;SDS011;68045;50.042;14.432;2023-08-20T08:01:36;14.80;;;11.38;;
78716;SDS011;68045;50.042;14.432;2023-08-20T08:05:37;17.80;;;12.35;;
78716;SDS011;68045;50.042;14.432;2023-08-20T08:09:38;15.32;;;12.63;;
78716;SDS011;68045;50.042;14.432;2023-08-20T08:13:38;12.80;;;11.45;;
78716;SDS011;68045;50.042;14.432;2023-08-20T08:17:39;12.98;;;11.57;;
78716;SDS011;68045;50.042;14.432;2023-08-20T08:21:40;12.55;;;11.35;;
78716;SDS011;68045;50.042;14.432;2023-08-20T08:25:42;17.60;;;12.07;;
78716;SDS011;68045;50.042;14.432;2023-08-20T08:29:43;12.70;;;10.85;;
78716;SDS011;68045;50.042;14.432;2023-08-20T08:33:45;14.65;;;12.05;;
78716;SDS011;68045;50.042;14.432;2023-08-20T08:37:46;14.50;;;11.70;;
78716;SDS011;68045;50.042;14.432;2023-08-20T08:41:48;15.00;;;12.00;;
78716;SDS011;68045;50.042;14.432;2023-08-20T08:45:51;14.23;;;10.88;;
78716;SDS011;68045;50.042;14.432;2023-08-20T08:49:55;13.70;;;11.80;;
78716;SDS011;68045;50.042;14.432;2023-08-20T08:53:57;17.17;;;12.52;;
78716;SDS011;68045;50.042;14.432;2023-08-20T09:01:59;16.98;;;12.18;;
78716;SDS011;68045;50.042;14.432;2023-08-20T09:06:01;12.63;;;11.00;;
78716;SDS011;68045;50.042;14.432;2023-08-20T09:10:04;16.00;;;12.52;;
78716;SDS011;68045;50.042;14.432;2023-08-20T09:14:05;16.08;;;11.70;;
78716;SDS011;68045;50.042;14.432;2023-08-20T09:18:08;17.05;;;13.50;;
78716;SDS011;68045;50.042;14.432;2023-08-20T09:22:13;16.38;;;12.60;;
78716;SDS011;68045;50.042;14.432;2023-08-20T09:26:15;16.00;;;14.30;;
78716;SDS011;68045;50.042;14.432;2023-08-20T09:30:19;17.60;;;13.65;;
78716;SDS011;68045;50.042;14.432;2023-08-20T09:34:23;18.48;;;13.93;;
78716;SDS011;68045;50.042;14.432;2023-08-20T09:38:23;15.57;;;12.00;;
78716;SDS011;68045;50.042;14.432;2023-08-20T09:42:24;15.35;;;12.35;;
78716;SDS011;68045;50.042;14.432;2023-08-20T09:46:30;18.80;;;12.45;;
78716;SDS011;68045;50.042;14.432;2023-08-20T09:50:32;17.98;;;14.02;;
78716;SDS011;68045;50.042;14.432;2023-08-20T09:58:44;17.13;;;13.20;;
78716;SDS011;68045;50.042;14.432;2023-08-20T10:02:46;15.82;;;13.77;;
78716;SDS011;68045;50.042;14.432;2023-08-20T10:06:47;15.63;;;12.90;;
78716;SDS011;68045;50.042;14.432;2023-08-20T10:10:50;14.93;;;13.23;;
78716;SDS011;68045;50.042;14.432;2023-08-20T10:14:51;15.02;;;13.23;;
78716;SDS011;68045;50.042;14.432;2023-08-20T10:18:51;14.18;;;12.68;;
78716;SDS011;68045;50.042;14.432;2023-08-20T10:22:59;13.90;;;11.55;;
78716;SDS011;68045;50.042;14.432;2023-08-20T10:35:14;12.68;;;11.38;;
78716;SDS011;68045;50.042;14.432;2023-08-20T10:39:20;14.43;;;11.43;;
78716;SDS011;68045;50.042;14.432;2023-08-20T10:43:34;16.27;;;11.77;;
78716;SDS011;68045;50.042;14.432;2023-08-20T10:47:47;14.20;;;12.73;;
78716;SDS011;68045;50.042;14.432;2023-08-20T10:51:48;14.85;;;10.77;;
78716;SDS011;68045;50.042;14.432;2023-08-20T10:55:53;15.95;;;14.48;;
78716;SDS011;68045;50.042;14.432;2023-08-20T10:59:57;15.93;;;13.07;;
78716;SDS011;68045;50.042;14.432;2023-08-20T11:04:01;14.15;;;12.68;;
78716;SDS011;68045;50.042;14.432;2023-08-20T11:08:06;18.67;;;14.35;;
78716;SDS011;68045;50.042;14.432;2023-08-20T11:12:08;13.93;;;11.80;;
78716;SDS011;68045;50.042;14.432;2023-08-20T11:16:09;12.88;;;11.55;;
78716;SDS011;68045;50.042;14.432;2023-08-20T11:20:10;15.65;;;11.70;;
78716;SDS011;68045;50.042;14.432;2023-08-20T11:24:14;13.23;;;11.82;;
78716;SDS011;68045;50.042;14.432;2023-08-20T11:28:14;15.65;;;11.43;;
78716;SDS011;68045;50.042;14.432;2023-08-20T11:32:15;11.85;;;10.60;;
78716;SDS011;68045;50.042;14.432;2023-08-20T11:36:17;18.25;;;10.45;;
78716;SDS011;68045;50.042;14.432;2023-08-20T11:40:20;13.20;;;10.25;;
78716;SDS011;68045;50.042;14.432;2023-08-20T11:44:22;11.98;;;9.15;;
78716;SDS011;68045;50.042;14.432;2023-08-20T11:48:23;12.80;;;10.30;;
78716;SDS011;68045;50.042;14.432;2023-08-20T11:52:23;12.73;;;10.23;;
78716;SDS011;68045;50.042;14.432;2023-08-20T11:56:24;10.73;;;9.63;;
78716;SDS011;68045;50.042;14.432;2023-08-20T12:00:28;10.65;;;9.57;;
78716;SDS011;68045;50.042;14.432;2023-08-20T12:04:30;12.65;;;10.02;;
78716;SDS011;68045;50.042;14.432;2023-08-20T12:08:37;12.05;;;8.65;;
78716;SDS011;68045;50.042;14.432;2023-08-20T12:12:38;11.02;;;8.68;;
78716;SDS011;68045;50.042;14.432;2023-08-20T12:16:39;12.27;;;9.90;;
78716;SDS011;68045;50.042;14.432;2023-08-20T12:20:40;11.90;;;8.70;;
78716;SDS011;68045;50.042;14.432;2023-08-20T12:24:41;11.52;;;9.07;;
78716;SDS011;68045;50.042;14.432;2023-08-20T12:28:42;9.05;;;8.15;;
78716;SDS011;68045;50.042;14.432;2023-08-20T12:32:43;9.82;;;8.82;;
78716;SDS011;68045;50.042;14.432;2023-08-20T12:36:43;10.07;;;9.07;;
78716;SDS011;68045;50.042;14.432;2023-08-20T12:40:44;10.10;;;8.25;;
78716;SDS011;68045;50.042;14.432;2023-08-20T12:44:45;8.98;;;8.18;;
78716;SDS011;68045;50.042;14.432;2023-08-20T12:48:46;9.27;;;8.38;;
78716;SDS011;68045;50.042;14.432;2023-08-20T12:52:47;12.13;;;8.82;;
78716;SDS011;68045;50.042;14.432;2023-08-20T12:56:51;9.32;;;8.30;;
78716;SDS011;68045;50.042;14.432;2023-08-20T13:00:52;10.48;;;8.20;;
78716;SDS011;68045;50.042;14.432;2023-08-20T13:04:52;9.23;;;8.07;;
78716;SDS011;68045;50.042;14.432;2023-08-20T13:08:54;10.15;;;7.80;;
78716;SDS011;68045;50.042;14.432;2023-08-20T13:12:55;8.05;;;7.05;;
78716;SDS011;68045;50.042;14.432;2023-08-20T13:17:01;8.13;;;7.18;;
78716;SDS011;68045;50.042;14.432;2023-08-20T13:21:03;10.15;;;6.80;;
78716;SDS011;68045;50.042;14.432;2023-08-20T13:25:04;8.20;;;6.97;;
78716;SDS011;68045;50.042;14.432;2023-08-20T13:29:05;13.43;;;7.82;;
78716;SDS011;68045;50.042;14.432;2023-08-20T13:33:06;9.15;;;7.80;;
78716;SDS011;68045;50.042;14.432;2023-08-20T13:37:07;11.18;;;7.60;;
78716;SDS011;68045;50.042;14.432;2023-08-20T13:41:08;9.65;;;7.95;;
78716;SDS011;68045;50.042;14.432;2023-08-20T13:45:10;11.38;;;7.18;;
78716;SDS011;68045;50.042;14.432;2023-08-20T13:49:10;8.60;;;7.40;;
78716;SDS011;68045;50.042;14.432;2023-08-20T13:53:11;10.07;;;7.88;;
78716;SDS011;68045;50.042;14.432;2023-08-20T13:57:12;11.27;;;7.43;;
78716;SDS011;68045;50.042;14.432;2023-08-20T14:01:12;8.18;;;7.30;;
78716;SDS011;68045;50.042;14.432;2023-08-20T14:09:14;9.85;;;6.75;;
78716;SDS011;68045;50.042;14.432;2023-08-20T14:13:17;10.25;;;7.22;;
78716;SDS011;68045;50.042;14.432;2023-08-20T14:17:18;9.68;;;7.32;;
78716;SDS011;68045;50.042;14.432;2023-08-20T14:21:19;8.73;;;7.30;;
78716;SDS011;68045;50.042;14.432;2023-08-20T14:25:19;11.18;;;7.95;;
78716;SDS011;68045;50.042;14.432;2023-08-20T14:29:21;9.52;;;7.20;;
78716;SDS011;68045;50.042;14.432;2023-08-20T14:33:21;9.15;;;7.53;;
78716;SDS011;68045;50.042;14.432;2023-08-20T14:37:22;12.77;;;7.63;;
78716;SDS011;68045;50.042;14.432;2023-08-20T14:41:23;8.88;;;6.93;;
78716;SDS011;68045;50.042;14.432;2023-08-20T14:45:23;10.55;;;6.97;;
78716;SDS011;68045;50.042;14.432;2023-08-20T14:49:24;12.05;;;7.35;;
78716;SDS011;68045;50.042;14.432;2023-08-20T14:53:25;13.02;;;7.80;;
78716;SDS011;68045;50.042;14.432;2023-08-20T14:57:26;8.65;;;7.68;;
78716;SDS011;68045;50.042;14.432;2023-08-20T15:05:28;9.00;;;7.25;;
78716;SDS011;68045;50.042;14.432;2023-08-20T15:09:29;14.55;;;7.22;;
78716;SDS011;68045;50.042;14.432;2023-08-20T15:13:31;9.30;;;7.78;;
78716;SDS011;68045;50.042;14.432;2023-08-20T15:17:32;10.02;;;8.02;;
78716;SDS011;68045;50.042;14.432;2023-08-20T15:21:33;9.73;;;7.88;;
78716;SDS011;68045;50.042;14.432;2023-08-20T15:25:34;14.48;;;8.55;;
78716;SDS011;68045;50.042;14.432;2023-08-20T15:29:34;10.13;;;7.70;;
78716;SDS011;68045;50.042;14.432;2023-08-20T15:33:35;11.63;;;8.38;;
78716;SDS011;68045;50.042;14.432;2023-08-20T15:37:36;13.43;;;8.45;;
78716;SDS011;68045;50.042;14.432;2023-08-20T15:41:36;12.35;;;8.20;;
78716;SDS011;68045;50.042;14.432;2023-08-20T15:45:37;13.13;;;7.85;;
78716;SDS011;68045;50.042;14.432;2023-08-20T15:49:38;9.20;;;7.88;;
78716;SDS011;68045;50.042;14.432;2023-08-20T15:53:39;8.88;;;6.90;;
78716;SDS011;68045;50.042;14.432;2023-08-20T15:57:40;8.32;;;7.47;;
78716;SDS011;68045;50.042;14.432;2023-08-20T16:01:40;9.85;;;7.82;;
78716;SDS011;68045;50.042;14.432;2023-08-20T16:05:41;11.02;;;7.57;;
78716;SDS011;68045;50.042;14.432;2023-08-20T16:09:42;11.70;;;7.22;;
78716;SDS011;68045;50.042;14.432;2023-08-20T16:13:43;11.02;;;7.97;;
78716;SDS011;68045;50.042;14.432;2023-08-20T16:17:46;9.18;;;7.28;;
78716;SDS011;68045;50.042;14.432;2023-08-20T16:21:47;11.52;;;7.32;;
78716;SDS011;68045;50.042;14.432;2023-08-20T16:25:47;10.75;;;7.18;;
78716;SDS011;68045;50.042;14.432;2023-08-20T16:29:49;13.68;;;8.30;;
78716;SDS011;68045;50.042;14.432;2023-08-20T16:33:50;13.88;;;6.75;;
78716;SDS011;68045;50.042;14.432;2023-08-20T16:37:51;11.55;;;7.60;;
78716;SDS011;68045;50.042;14.432;2023-08-20T16:41:51;12.20;;;7.55;;
78716;SDS011;68045;50.042;14.432;2023-08-20T16:45:58;14.77;;;6.97;;
78716;SDS011;68045;50.042;14.432;2023-08-20T16:50:00;11.43;;;7.03;;
78716;SDS011;68045;50.042;14.432;2023-08-20T16:54:01;8.90;;;7.03;;
78716;SDS011;68045;50.042;14.432;2023-08-20T16:58:05;7.93;;;7.10;;
78716;SDS011;68045;50.042;14.432;2023-08-20T17:02:05;11.23;;;6.90;;
78716;SDS011;68045;50.042;14.432;2023-08-20T17:06:06;14.15;;;6.93;;
78716;SDS011;68045;50.042;14.432;2023-08-20T17:10:07;10.90;;;6.53;;
78716;SDS011;68045;50.042;14.432;2023-08-20T17:14:11;9.57;;;7.07;;
78716;SDS011;68045;50.042;14.432;2023-08-20T17:18:12;11.05;;;7.97;;
78716;SDS011;68045;50.042;14.432;2023-08-20T17:22:12;14.45;;;7.70;;
78716;SDS011;68045;50.042;14.432;2023-08-20T17:26:13;10.98;;;7.22;;
78716;SDS011;68045;50.042;14.432;2023-08-20T17:30:14;9.55;;;7.93;;
78716;SDS011;68045;50.042;14.432;2023-08-20T17:34:16;9.93;;;7.00;;
78716;SDS011;68045;50.042;14.432;2023-08-20T17:38:17;10.88;;;7.82;;
78716;SDS011;68045;50.042;14.432;2023-08-20T17:42:18;14.45;;;6.82;;
78716;SDS011;68045;50.042;14.432;2023-08-20T17:46:20;9.60;;;6.45;;
78716;SDS011;68045;50.042;14.432;2023-08-20T17:50:20;8.98;;;6.90;;
78716;SDS011;68045;50.042;14.432;2023-08-20T17:54:21;13.45;;;7.78;;
78716;SDS011;68045;50.042;14.432;2023-08-20T17:58:22;11.48;;;8.25;;
78716;SDS011;68045;50.042;14.432;2023-08-20T18:02:23;12.00;;;7.63;;
78716;SDS011;68045;50.042;14.432;2023-08-20T18:06:23;10.13;;;7.80;;
78716;SDS011;68045;50.042;14.432;2023-08-20T18:10:24;11.93;;;8.48;;
78716;SDS011;68045;50.042;14.432;2023-08-20T18:14:25;9.13;;;7.10;;
78716;SDS011;68045;50.042;14.432;2023-08-20T18:18:26;10.27;;;7.90;;
78716;SDS011;68045;50.042;14.432;2023-08-20T18:22:29;12.23;;;9.10;;
78716;SDS011;68045;50.042;14.432;2023-08-20T18:26:30;10.82;;;8.15;;
78716;SDS011;68045;50.042;14.432;2023-08-20T18:30:32;11.48;;;8.05;;
78716;SDS011;68045;50.042;14.432;2023-08-20T18:34:33;9.98;;;8.18;;
78716;SDS011;68045;50.042;14.432;2023-08-20T18:42:34;16.77;;;8.55;;
78716;SDS011;68045;50.042;14.432;2023-08-20T18:50:37;12.65;;;8.35;;
78716;SDS011;68045;50.042;14.432;2023-08-20T18:54:37;12.15;;;8.40;;
78716;SDS011;68045;50.042;14.432;2023-08-20T18:58:39;10.00;;;9.00;;
78716;SDS011;68045;50.042;14.432;2023-08-20T19:02:40;11.07;;;8.30;;
78716;SDS011;68045;50.042;14.432;2023-08-20T19:06:41;10.75;;;9.40;;
78716;SDS011;68045;50.042;14.432;2023-08-20T19:10:42;11.45;;;9.02;;
78716;SDS011;68045;50.042;14.432;2023-08-20T19:14:43;12.77;;;8.77;;
78716;SDS011;68045;50.042;14.432;2023-08-20T19:18:44;10.30;;;7.63;;
78716;SDS011;68045;50.042;14.432;2023-08-20T19:22:46;13.02;;;8.45;;
78716;SDS011;68045;50.042;14.432;2023-08-20T19:26:47;12.98;;;8.98;;
78716;SDS011;68045;50.042;14.432;2023-08-20T19:30:48;12.95;;;9.32;;
78716;SDS011;68045;50.042;14.432;2023-08-20T19:34:51;13.02;;;9.40;;
78716;SDS011;68045;50.042;14.432;2023-08-20T19:38:55;11.68;;;9.23;;
78716;SDS011;68045;50.042;14.432;2023-08-20T19:42:56;12.15;;;9.85;;
78716;SDS011;68045;50.042;14.432;2023-08-20T19:46:56;15.98;;;10.43;;
78716;SDS011;68045;50.042;14.432;2023-08-20T19:50:59;16.55;;;9.52;;
78716;SDS011;68045;50.042;14.432;2023-08-20T19:55:00;15.18;;;9.75;;
78716;SDS011;68045;50.042;14.432;2023-08-20T19:59:01;12.75;;;9.23;;
78716;SDS011;68045;50.042;14.432;2023-08-20T20:03:04;10.75;;;8.90;;
78716;SDS011;68045;50.042;14.432;2023-08-20T20:07:05;12.45;;;9.43;;
78716;SDS011;68045;50.042;14.432;2023-08-20T20:11:06;11.73;;;10.10;;
78716;SDS011;68045;50.042;14.432;2023-08-20T20:15:07;17.33;;;10.10;;
78716;SDS011;68045;50.042;14.432;2023-08-20T20:19:09;13.30;;;9.88;;
78716;SDS011;68045;50.042;14.432;2023-08-20T20:23:10;11.18;;;9.18;;
78716;SDS011;68045;50.042;14.432;2023-08-20T20:27:11;13.55;;;9.18;;
78716;SDS011;68045;50.042;14.432;2023-08-20T20:31:12;12.25;;;9.52;;
78716;SDS011;68045;50.042;14.432;2023-08-20T20:35:13;12.93;;;10.23;;
78716;SDS011;68045;50.042;14.432;2023-08-20T20:39:14;12.02;;;9.35;;
78716;SDS011;68045;50.042;14.432;2023-08-20T20:43:15;14.57;;;9.50;;
78716;SDS011;68045;50.042;14.432;2023-08-20T20:47:16;14.02;;;8.85;;
78716;SDS011;68045;50.042;14.432;2023-08-20T20:51:17;12.52;;;9.40;;
78716;SDS011;68045;50.042;14.432;2023-08-20T20:55:18;12.43;;;9.70;;
78716;SDS011;68045;50.042;14.432;2023-08-20T20:59:19;13.52;;;9.73;;
78716;SDS011;68045;50.042;14.432;2023-08-20T21:03:19;15.50;;;9.73;;
78716;SDS011;68045;50.042;14.432;2023-08-20T21:07:20;15.52;;;10.68;;
78716;SDS011;68045;50.042;14.432;2023-08-20T21:11:21;16.80;;;9.45;;
78716;SDS011;68045;50.042;14.432;2023-08-20T21:15:22;13.27;;;10.52;;
78716;SDS011;68045;50.042;14.432;2023-08-20T21:19:23;16.10;;;10.65;;
78716;SDS011;68045;50.042;14.432;2023-08-20T21:23:24;13.55;;;11.10;;
78716;SDS011;68045;50.042;14.432;2023-08-20T21:27:26;13.07;;;10.02;;
78716;SDS011;68045;50.042;14.432;2023-08-20T21:31:27;16.55;;;10.75;;
78716;SDS011;68045;50.042;14.432;2023-08-20T21:35:28;16.20;;;11.73;;
78716;SDS011;68045;50.042;14.432;2023-08-20T21:39:29;19.63;;;14.65;;
78716;SDS011;68045;50.042;14.432;2023-08-20T21:43:31;19.50;;;13.68;;
78716;SDS011;68045;50.042;14.432;2023-08-20T21:47:32;18.10;;;12.15;;
78716;SDS011;68045;50.042;14.432;2023-08-20T21:51:33;14.82;;;10.57;;
78716;SDS011;68045;50.042;14.432;2023-08-20T21:55:35;14.82;;;10.73;;
78716;SDS011;68045;50.042;14.432;2023-08-20T21:59:36;14.45;;;10.68;;
78716;SDS011;68045;50.042;14.432;2023-08-20T22:03:36;13.13;;;11.35;;
78716;SDS011;68045;50.042;14.432;2023-08-20T22:07:37;13.00;;;10.52;;
78716;SDS011;68045;50.042;14.432;2023-08-20T22:11:38;14.35;;;10.68;;
78716;SDS011;68045;50.042;14.432;2023-08-20T22:15:40;17.33;;;11.02;;
78716;SDS011;68045;50.042;14.432;2023-08-20T22:19:41;14.73;;;10.25;;
78716;SDS011;68045;50.042;14.432;2023-08-20T22:23:42;14.40;;;10.60;;
78716;SDS011;68045;50.042;14.432;2023-08-20T22:27:43;16.05;;;10.93;;
78716;SDS011;68045;50.042;14.432;2023-08-20T22:31:44;15.57;;;11.15;;
78716;SDS011;68045;50.042;14.432;2023-08-20T22:35:50;14.73;;;11.38;;
78716;SDS011;68045;50.042;14.432;2023-08-20T22:39:51;13.90;;;10.57;;
78716;SDS011;68045;50.042;14.432;2023-08-20T22:43:52;17.65;;;12.07;;
78716;SDS011;68045;50.042;14.432;2023-08-20T22:47:54;13.88;;;10.57;;
78716;SDS011;68045;50.042;14.432;2023-08-20T22:51:58;14.43;;;10.68;;
78716;SDS011;68045;50.042;14.432;2023-08-20T22:55:59;13.10;;;10.85;;
78716;SDS011;68045;50.042;14.432;2023-08-20T22:59:59;13.23;;;11.18;;
78716;SDS011;68045;50.042;14.432;2023-08-20T23:04:00;12.32;;;10.13;;
78716;SDS011;68045;50.042;14.432;2023-08-20T23:08:01;14.68;;;12.18;;
78716;SDS011;68045;50.042;14.432;2023-08-20T23:12:02;16.60;;;10.52;;
78716;SDS011;68045;50.042;14.432;2023-08-20T23:16:03;13.57;;;11.27;;
78716;SDS011;68045;50.042;14.432;2023-08-20T23:20:04;14.88;;;11.07;;
78716;SDS011;68045;50.042;14.432;2023-08-20T23:24:07;15.10;;;12.27;;
78716;SDS011;68045;50.042;14.432;2023-08-20T23:28:08;14.93;;;11.98;;
78716;SDS011;68045;50.042;14.432;2023-08-20T23:32:08;16.58;;;13.25;;
78716;SDS011;68045;50.042;14.432;2023-08-20T23:36:09;17.67;;;12.40;;
78716;SDS011;68045;50.042;14.432;2023-08-20T23:40:11;18.95;;;13.50;;
78716;SDS011;68045;50.042;14.432;2023-08-20T23:44:11;16.30;;;12.25;;
78716;SDS011;68045;50.042;14.432;2023-08-20T23:48:14;14.73;;;12.82;;
78716;SDS011;68045;50.042;14.432;2023-08-20T23:52:15;18.83;;;13.02;;
78716;SDS011;68045;50.042;14.432;2023-08-20T23:56:15;17.58;;;13.35;;
